Time;durP1;ratioP1;P1;durP2;ratioP2;P2;SDS_P1;SDS_P2;PMS_P1;PMS_P2;Temp;Humidity;BMP_temperature;BMP_pressure;BME280_temperature;BME280_humidity;BME280_pressure;Samples;Min_cycle;Max_cycle;Signal;HPM_P1;HPM_P2
2024/01/04 00:00:28;;;;;;;15.95;0.80;;;8.60;99.90;;;;;;5034307;28;20240;-79
2024/01/04 00:02:54;;;;;;;18.27;1.13;;;8.60;99.90;;;;;;5034239;28;20317;-80
2024/01/04 00:05:20;;;;;;;16.90;0.87;;;8.60;99.90;;;;;;5016901;28;20260;-79
2024/01/04 00:07:45;;;;;;;17.63;0.93;;;8.60;99.90;;;;;;5033961;28;20213;-79
2024/01/04 00:10:13;;;;;;;17.70;1.00;;;8.70;99.90;;;;;;5034532;28;20170;-80
2024/01/04 00:12:39;;;;;;;18.00;1.33;;;8.70;99.90;;;;;;5033871;28;20176;-78
2024/01/04 00:15:05;;;;;;;16.60;0.83;;;8.80;99.90;;;;;;5034682;28;20257;-81
2024/01/04 00:17:31;;;;;;;17.25;1.00;;;8.80;99.90;;;;;;5034023;28;20797;-79
2024/01/04 00:19:57;;;;;;;17.77;1.10;;;8.80;99.90;;;;;;5033813;28;20170;-79
2024/01/04 00:22:23;;;;;;;17.67;0.90;;;8.90;99.90;;;;;;5034636;28;20483;-81
2024/01/04 00:24:49;;;;;;;17.90;1.03;;;8.90;99.90;;;;;;5034371;28;20685;-79
2024/01/04 00:27:14;;;;;;;20.13;1.13;;;8.90;99.90;;;;;;5034257;28;20416;-79
2024/01/04 00:29:42;;;;;;;18.83;1.20;;;8.90;99.90;;;;;;5033716;28;20169;-79
2024/01/04 00:32:08;;;;;;;17.55;0.98;;;8.90;99.90;;;;;;5033663;28;20188;-80
2024/01/04 00:34:33;;;;;;;17.92;1.02;;;8.90;99.90;;;;;;5033703;28;20168;-80
2024/01/04 00:36:59;;;;;;;17.27;0.90;;;8.90;99.90;;;;;;5033803;28;20185;-80
2024/01/04 00:39:25;;;;;;;18.03;1.30;;;8.90;99.90;;;;;;5033698;28;20170;-80
2024/01/04 00:41:51;;;;;;;17.40;1.10;;;9.00;99.90;;;;;;5033567;28;20205;-79
2024/01/04 00:44:17;;;;;;;17.77;1.17;;;8.90;99.90;;;;;;5034163;28;20166;-79
2024/01/04 00:46:43;;;;;;;19.38;1.05;;;9.00;99.90;;;;;;5033507;28;20277;-81
2024/01/04 00:49:09;;;;;;;18.47;1.03;;;8.90;99.90;;;;;;5036344;28;20249;-80
2024/01/04 00:51:34;;;;;;;18.47;1.07;;;8.90;99.90;;;;;;5019511;28;20987;-81
2024/01/04 00:54:01;;;;;;;17.47;1.10;;;9.00;99.90;;;;;;5037155;28;20643;-80
2024/01/04 00:56:34;;;;;;;20.08;1.60;;;8.90;99.90;;;;;;5037070;28;20178;-81
2024/01/04 00:59:00;;;;;;;17.95;1.05;;;8.90;99.90;;;;;;5019340;28;20730;-80
2024/01/04 01:01:26;;;;;;;18.25;1.00;;;9.00;99.90;;;;;;5036994;28;20193;-80
2024/01/04 01:03:52;;;;;;;18.53;1.40;;;8.90;99.90;;;;;;5019189;28;20553;-80
2024/01/04 01:06:17;;;;;;;17.80;0.90;;;8.90;99.90;;;;;;5002871;28;20463;-81
2024/01/04 01:08:43;;;;;;;20.43;1.60;;;8.90;99.90;;;;;;5037076;28;20166;-80
2024/01/04 01:11:08;;;;;;;24.67;2.47;;;8.90;99.90;;;;;;5037243;28;20173;-79
2024/01/04 01:13:35;;;;;;;19.63;1.20;;;9.00;99.90;;;;;;5036843;28;20158;-80
2024/01/04 01:16:01;;;;;;;18.80;1.40;;;8.90;99.90;;;;;;5036756;28;20193;-79
2024/01/04 01:18:27;;;;;;;18.08;1.55;;;9.00;99.90;;;;;;5036557;28;20623;-80
2024/01/04 01:20:54;;;;;;;19.83;1.27;;;9.00;99.90;;;;;;5036807;28;20192;-80
2024/01/04 01:23:20;;;;;;;19.05;1.30;;;8.90;99.90;;;;;;5037009;28;20294;-80
2024/01/04 01:25:45;;;;;;;18.47;1.33;;;8.90;99.90;;;;;;5036579;28;20677;-81
2024/01/04 01:28:11;;;;;;;19.20;2.07;;;8.90;99.90;;;;;;5036526;28;20165;-81
2024/01/04 01:30:37;;;;;;;18.27;1.57;;;9.00;99.90;;;;;;5036960;28;20193;-81
2024/01/04 01:33:03;;;;;;;20.63;1.80;;;9.00;99.90;;;;;;5036410;28;20440;-80
2024/01/04 01:35:29;;;;;;;20.37;1.93;;;9.00;99.90;;;;;;5036208;28;20173;-80
2024/01/04 01:37:54;;;;;;;19.97;1.40;;;9.00;99.90;;;;;;5036498;28;20487;-81
2024/01/04 01:40:21;;;;;;;17.77;1.30;;;9.00;99.90;;;;;;5036292;28;20224;-80
2024/01/04 01:42:50;;;;;;;18.90;1.30;;;9.00;99.90;;;;;;5018179;28;20199;-81
2024/01/04 01:45:20;;;;;;;18.52;1.30;;;9.00;99.90;;;;;;5036238;28;20162;-81
2024/01/04 01:47:47;;;;;;;20.27;1.73;;;9.00;99.90;;;;;;5036483;28;20157;-80
2024/01/04 01:50:19;;;;;;;19.20;1.30;;;9.00;99.90;;;;;;5036022;28;20192;-80
2024/01/04 01:52:45;;;;;;;18.55;1.55;;;9.00;99.90;;;;;;5036304;28;20178;-80
2024/01/04 01:55:13;;;;;;;22.08;1.90;;;9.10;99.90;;;;;;5036293;28;20181;-80
2024/01/04 01:57:39;;;;;;;21.40;1.50;;;9.00;99.90;;;;;;5018192;28;20284;-80
2024/01/04 02:00:06;;;;;;;23.10;2.03;;;9.00;99.90;;;;;;5035506;28;20174;-81
2024/01/04 02:02:33;;;;;;;20.63;1.77;;;9.00;99.90;;;;;;5035677;28;20193;-80
2024/01/04 02:05:00;;;;;;;20.15;2.08;;;9.00;99.90;;;;;;5035543;28;20177;-81
2024/01/04 02:07:26;;;;;;;23.17;3.05;;;9.00;99.90;;;;;;5017620;28;20196;-80
2024/01/04 02:09:51;;;;;;;19.00;1.97;;;9.00;99.90;;;;;;5035901;28;20194;-81
2024/01/04 02:12:17;;;;;;;19.40;1.90;;;9.00;99.90;;;;;;5035660;28;20245;-81
2024/01/04 02:14:44;;;;;;;18.93;1.70;;;9.10;99.90;;;;;;5035761;28;20170;-80
2024/01/04 02:17:10;;;;;;;23.48;2.50;;;9.10;99.90;;;;;;5035537;28;20182;-80
2024/01/04 02:19:36;;;;;;;19.05;1.70;;;9.10;99.90;;;;;;5017853;28;20645;-80
2024/01/04 02:22:02;;;;;;;19.30;1.97;;;9.10;99.90;;;;;;5035360;28;20185;-81
2024/01/04 02:24:28;;;;;;;23.60;2.38;;;9.10;99.90;;;;;;5035559;28;20397;-81
2024/01/04 02:26:53;;;;;;;25.53;2.53;;;9.20;99.90;;;;;;5035652;28;20185;-80
2024/01/04 02:29:19;;;;;;;19.63;1.53;;;9.10;99.90;;;;;;5017336;28;20251;-80
2024/01/04 02:31:48;;;;;;;21.13;2.00;;;9.20;99.90;;;;;;5035132;28;20237;-80
2024/01/04 02:34:14;;;;;;;22.80;2.35;;;9.10;99.90;;;;;;5035326;28;20174;-81
2024/01/04 02:36:40;;;;;;;19.20;1.90;;;9.10;99.90;;;;;;5035104;28;20670;-80
2024/01/04 02:39:06;;;;;;;19.30;2.10;;;9.10;99.90;;;;;;5035594;28;20432;-81
2024/01/04 02:41:32;;;;;;;18.80;1.75;;;9.10;99.90;;;;;;5035217;28;20629;-81
2024/01/04 02:43:57;;;;;;;21.23;1.87;;;9.10;99.90;;;;;;5017467;28;20165;-81
2024/01/04 02:46:23;;;;;;;26.07;2.23;;;9.10;99.90;;;;;;5035280;28;20192;-81
2024/01/04 02:48:49;;;;;;;20.63;2.30;;;9.10;99.90;;;;;;5035240;28;20162;-81
2024/01/04 02:51:14;;;;;;;22.73;2.03;;;9.10;99.90;;;;;;5035078;28;20173;-79
2024/01/04 02:53:40;;;;;;;21.70;2.27;;;9.10;99.90;;;;;;5034791;28;20697;-79
2024/01/04 02:56:05;;;;;;;21.73;2.30;;;9.10;99.90;;;;;;5034531;28;20721;-80
2024/01/04 02:58:32;;;;;;;18.87;2.13;;;9.20;99.90;;;;;;5035542;28;20185;-80
2024/01/04 03:00:57;;;;;;;20.17;2.10;;;9.20;99.90;;;;;;5035325;28;20166;-81
2024/01/04 03:03:23;;;;;;;20.10;2.20;;;9.20;99.90;;;;;;5034733;28;20197;-80
2024/01/04 03:05:48;;;;;;;25.20;2.33;;;9.20;99.90;;;;;;5035543;28;20614;-80
2024/01/04 03:08:14;;;;;;;21.43;2.17;;;9.20;99.90;;;;;;5034827;28;20627;-80
2024/01/04 03:10:40;;;;;;;19.70;1.80;;;9.20;99.90;;;;;;5034688;28;20650;-80
2024/01/04 03:13:09;;;;;;;18.70;2.07;;;9.20;99.90;;;;;;5016706;28;20470;-80
2024/01/04 03:15:34;;;;;;;20.65;2.03;;;9.10;99.90;;;;;;5034707;28;20165;-81
2024/01/04 03:18:00;;;;;;;19.77;2.20;;;9.20;99.90;;;;;;5034665;28;20176;-80
2024/01/04 03:20:25;;;;;;;18.20;1.70;;;9.20;99.90;;;;;;5034818;28;20173;-81
2024/01/04 03:22:51;;;;;;;21.53;2.10;;;9.20;99.90;;;;;;5034627;28;20551;-80
2024/01/04 03:25:17;;;;;;;17.80;1.50;;;9.10;99.90;;;;;;5034651;28;20690;-81
2024/01/04 03:27:43;;;;;;;18.40;1.90;;;9.20;99.90;;;;;;5034310;28;20260;-80
2024/01/04 03:30:10;;;;;;;19.48;2.10;;;9.20;99.90;;;;;;5016724;28;20173;-80
2024/01/04 03:32:36;;;;;;;18.23;1.88;;;9.20;99.90;;;;;;5034937;28;20662;-80
2024/01/04 03:35:04;;;;;;;19.60;2.20;;;9.20;99.90;;;;;;5034564;28;20236;-81
2024/01/04 03:37:30;;;;;;;18.45;2.00;;;9.10;99.90;;;;;;5034401;28;20204;-81
2024/01/04 03:39:56;;;;;;;28.27;1.83;;;9.10;99.90;;;;;;5034078;28;20566;-80
2024/01/04 03:42:23;;;;;;;18.80;2.00;;;9.20;99.90;;;;;;5034283;28;20447;-80
2024/01/04 03:44:48;;;;;;;19.00;1.83;;;9.20;99.90;;;;;;5034451;28;20238;-80
2024/01/04 03:47:14;;;;;;;18.27;1.80;;;9.10;99.90;;;;;;5016465;28;20280;-81
2024/01/04 03:49:39;;;;;;;18.80;1.97;;;9.10;99.90;;;;;;5034485;28;20162;-81
2024/01/04 03:52:05;;;;;;;19.07;2.10;;;9.20;99.90;;;;;;5034242;28;20252;-80
2024/01/04 03:54:31;;;;;;;19.37;1.97;;;9.20;99.90;;;;;;5034021;28;20173;-81
2024/01/04 03:56:57;;;;;;;18.90;1.70;;;9.10;99.90;;;;;;5033989;28;20186;-80
2024/01/04 03:59:23;;;;;;;24.23;2.10;;;9.10;99.90;;;;;;5034535;28;20196;-80
2024/01/04 04:01:48;;;;;;;19.20;2.20;;;9.10;99.90;;;;;;5034414;28;20486;-80
2024/01/04 04:04:14;;;;;;;18.57;1.80;;;9.00;99.90;;;;;;5033930;28;20181;-80
2024/01/04 04:06:40;;;;;;;23.93;2.23;;;9.10;99.90;;;;;;5034525;28;20224;-80
2024/01/04 04:09:07;;;;;;;27.17;3.13;;;9.10;99.90;;;;;;5016815;28;20436;-80
2024/01/04 04:11:33;;;;;;;21.30;3.03;;;9.10;99.90;;;;;;5034420;28;21039;-81
2024/01/04 04:13:59;;;;;;;18.60;1.70;;;9.10;99.90;;;;;;5034317;28;20593;-82
2024/01/04 04:16:24;;;;;;;22.20;2.10;;;9.10;99.90;;;;;;5034275;28;20190;-80
2024/01/04 04:18:50;;;;;;;20.40;1.97;;;9.10;99.90;;;;;;5034204;28;20173;-82
2024/01/04 04:21:23;;;;;;;18.57;1.70;;;9.10;99.90;;;;;;5034039;28;20162;-80
2024/01/04 04:23:49;;;;;;;24.40;2.30;;;9.10;99.90;;;;;;5036773;28;20151;-81
2024/01/04 04:26:22;;;;;;;20.40;2.17;;;9.10;99.90;;;;;;5038217;28;20197;-80
2024/01/04 04:28:49;;;;;;;20.95;2.40;;;9.10;99.90;;;;;;5037810;28;20241;-82
2024/01/04 04:31:16;;;;;;;20.70;2.58;;;9.10;99.90;;;;;;5020162;28;20691;-80
2024/01/04 04:33:44;;;;;;;25.98;2.40;;;9.20;99.90;;;;;;5019928;28;20174;-80
2024/01/04 04:36:11;;;;;;;20.42;2.60;;;9.20;99.90;;;;;;5020953;28;20538;-80
2024/01/04 04:38:37;;;;;;;27.73;2.78;;;9.20;99.90;;;;;;5019954;28;20165;-81
2024/01/04 04:41:04;;;;;;;19.23;2.20;;;9.20;99.90;;;;;;5037479;28;20166;-81
2024/01/04 04:43:30;;;;;;;19.25;1.95;;;9.20;99.90;;;;;;5038027;28;20188;-80
2024/01/04 04:45:56;;;;;;;24.90;2.60;;;9.20;99.90;;;;;;5037419;28;20174;-81
2024/01/04 04:48:23;;;;;;;19.77;1.95;;;9.20;99.90;;;;;;5019705;28;20599;-82
2024/01/04 04:50:50;;;;;;;21.10;2.60;;;9.20;99.90;;;;;;5037564;28;20229;-80
2024/01/04 04:53:15;;;;;;;20.60;2.22;;;9.20;99.90;;;;;;5037197;28;20162;-80
2024/01/04 04:55:41;;;;;;;18.07;1.93;;;9.20;99.90;;;;;;5037522;28;20551;-80
2024/01/04 04:58:07;;;;;;;20.10;1.97;;;9.20;99.90;;;;;;5037715;28;20185;-81
2024/01/04 05:00:32;;;;;;;19.40;1.97;;;9.10;99.90;;;;;;5019770;28;20166;-82
2024/01/04 05:02:58;;;;;;;20.97;1.67;;;9.10;99.90;;;;;;5037296;28;20189;-81
2024/01/04 05:05:23;;;;;;;28.60;1.63;;;9.10;99.90;;;;;;5019256;28;20277;-80
2024/01/04 05:07:49;;;;;;;20.27;1.67;;;9.10;99.90;;;;;;5037166;28;20170;-80
2024/01/04 05:10:15;;;;;;;18.80;1.57;;;9.00;99.90;;;;;;5019139;28;20162;-79
2024/01/04 05:12:40;;;;;;;20.47;1.40;;;9.00;99.90;;;;;;5036986;28;20181;-81
2024/01/04 05:15:06;;;;;;;18.40;1.40;;;9.00;99.90;;;;;;5037232;28;20226;-81
2024/01/04 05:17:32;;;;;;;17.30;1.20;;;9.00;99.90;;;;;;5037075;28;20379;-81
2024/01/04 05:19:57;;;;;;;17.00;1.00;;;8.90;99.90;;;;;;5036985;28;20762;-80
2024/01/04 05:22:26;;;;;;;16.77;0.93;;;8.90;99.90;;;;;;5037642;28;20748;-81
2024/01/04 05:24:52;;;;;;;16.95;1.00;;;8.90;99.90;;;;;;5036714;28;20166;-80
2024/01/04 05:27:17;;;;;;;17.10;1.40;;;8.80;99.90;;;;;;5036901;28;20232;-80
2024/01/04 05:29:43;;;;;;;16.87;1.30;;;8.80;99.90;;;;;;5036988;28;20166;-81
2024/01/04 05:32:09;;;;;;;16.80;1.10;;;8.80;99.90;;;;;;5036391;28;20539;-80
2024/01/04 05:34:36;;;;;;;16.23;0.80;;;8.80;99.90;;;;;;5035289;28;20174;-80
2024/01/04 05:37:02;;;;;;;19.98;1.00;;;8.80;99.90;;;;;;5036347;28;20182;-79
2024/01/04 05:39:27;;;;;;;16.73;1.17;;;8.70;99.90;;;;;;5036272;28;20662;-80
2024/01/04 05:41:53;;;;;;;23.33;1.50;;;8.70;99.90;;;;;;5036313;28;20185;-80
2024/01/04 05:44:21;;;;;;;16.50;1.10;;;8.70;99.90;;;;;;5036426;28;20649;-81
2024/01/04 05:46:47;;;;;;;17.27;1.13;;;8.70;99.90;;;;;;5036131;28;20185;-80
2024/01/04 05:49:13;;;;;;;18.80;1.40;;;8.70;99.90;;;;;;5035645;28;20166;-80
2024/01/04 05:51:39;;;;;;;17.47;1.10;;;8.70;99.90;;;;;;5035959;28;20564;-79
2024/01/04 05:54:04;;;;;;;17.60;1.80;;;8.70;99.90;;;;;;5035589;28;20180;-80
2024/01/04 05:56:30;;;;;;;17.20;1.40;;;8.70;99.90;;;;;;5035986;28;20186;-81
2024/01/04 05:58:56;;;;;;;17.90;1.47;;;8.70;99.90;;;;;;5036085;28;20176;-79
2024/01/04 06:01:21;;;;;;;20.40;1.33;;;8.60;99.90;;;;;;5035189;28;20170;-80
2024/01/04 06:03:47;;;;;;;19.30;2.17;;;8.60;99.90;;;;;;5035634;28;20208;-80
2024/01/04 06:06:16;;;;;;;17.70;1.70;;;8.60;99.90;;;;;;5035342;28;20181;-78
2024/01/04 06:08:42;;;;;;;17.48;1.30;;;8.60;99.90;;;;;;5017338;28;20408;-79
2024/01/04 06:11:09;;;;;;;17.03;1.40;;;8.60;99.90;;;;;;5017676;28;20158;-80
2024/01/04 06:13:36;;;;;;;19.75;1.63;;;8.60;99.90;;;;;;5034998;28;20655;-79
2024/01/04 06:16:09;;;;;;;16.92;1.08;;;8.60;99.90;;;;;;5035236;28;20190;-80
2024/01/04 06:18:35;;;;;;;19.08;1.40;;;8.60;99.90;;;;;;5035236;28;20162;-81
2024/01/04 06:21:01;;;;;;;17.05;1.40;;;8.60;99.90;;;;;;5035047;28;20165;-80
2024/01/04 06:23:28;;;;;;;17.15;1.10;;;8.60;99.90;;;;;;5035234;28;20559;-80
2024/01/04 06:25:54;;;;;;;18.42;1.35;;;8.60;99.90;;;;;;5035198;28;20657;-80
2024/01/04 06:28:20;;;;;;;18.40;1.60;;;8.60;99.90;;;;;;5034887;28;20195;-80
2024/01/04 06:30:46;;;;;;;20.75;1.50;;;8.60;99.90;;;;;;5034796;28;20158;-81
2024/01/04 06:33:12;;;;;;;17.88;1.38;;;8.60;99.90;;;;;;5035396;28;20169;-81
2024/01/04 06:35:37;;;;;;;18.60;1.20;;;8.60;99.90;;;;;;5034781;28;20161;-81
2024/01/04 06:38:07;;;;;;;17.67;1.43;;;8.60;99.90;;;;;;5034799;28;20538;-80
2024/01/04 06:40:40;;;;;;;18.67;1.27;;;8.60;99.90;;;;;;5035027;28;20170;-80
2024/01/04 06:43:09;;;;;;;18.00;1.27;;;8.60;99.90;;;;;;5034698;28;20205;-80
2024/01/04 06:45:36;;;;;;;18.35;1.48;;;8.60;99.90;;;;;;5034209;28;20161;-80
2024/01/04 06:48:02;;;;;;;20.77;1.38;;;8.60;99.90;;;;;;5034223;28;20158;-80
2024/01/04 06:50:29;;;;;;;19.02;1.55;;;8.60;99.90;;;;;;5034843;28;20170;-80
2024/01/04 06:52:54;;;;;;;18.23;1.55;;;8.60;99.90;;;;;;5034246;28;20162;-80
2024/01/04 06:55:20;;;;;;;19.60;2.33;;;8.50;99.90;;;;;;5016628;28;20227;-79
2024/01/04 06:57:45;;;;;;;19.10;1.67;;;8.50;99.90;;;;;;5016538;28;20170;-79
2024/01/04 07:00:12;;;;;;;18.67;1.70;;;8.50;99.90;;;;;;5034282;28;20173;-80
2024/01/04 07:02:38;;;;;;;19.40;1.33;;;8.50;99.90;;;;;;5016362;28;20279;-80
2024/01/04 07:05:06;;;;;;;18.35;1.50;;;8.50;99.90;;;;;;5016611;28;20651;-80
2024/01/04 07:07:32;;;;;;;20.70;1.55;;;8.50;99.90;;;;;;5016226;28;20186;-80
2024/01/04 07:09:58;;;;;;;20.65;1.48;;;8.50;99.90;;;;;;5034124;28;20242;-79
2024/01/04 07:12:28;;;;;;;17.87;1.40;;;8.50;99.90;;;;;;5033896;28;20244;-80
2024/01/04 07:14:54;;;;;;;21.15;1.38;;;8.60;99.90;;;;;;5034287;28;20408;-80
2024/01/04 07:17:21;;;;;;;17.95;1.33;;;8.60;99.90;;;;;;5033684;28;20196;-80
2024/01/04 07:19:46;;;;;;;17.75;1.33;;;8.50;99.90;;;;;;5033915;28;20535;-80
2024/01/04 07:22:12;;;;;;;18.80;1.60;;;8.60;99.90;;;;;;5034028;28;20190;-80
2024/01/04 07:24:38;;;;;;;17.47;1.47;;;8.60;99.90;;;;;;5034821;28;20161;-81
2024/01/04 07:27:04;;;;;;;20.70;2.25;;;8.60;99.90;;;;;;5033692;28;20420;-81
2024/01/04 07:29:33;;;;;;;19.05;2.05;;;8.70;99.90;;;;;;5016275;28;20177;-80
2024/01/04 07:31:59;;;;;;;19.50;2.60;;;8.70;99.90;;;;;;5034222;28;20161;-80
2024/01/04 07:34:25;;;;;;;18.70;2.20;;;8.70;99.90;;;;;;5034009;28;20608;-80
2024/01/04 07:36:51;;;;;;;18.33;1.57;;;8.70;99.90;;;;;;5033511;28;20196;-80
2024/01/04 07:39:16;;;;;;;18.80;2.40;;;8.70;99.90;;;;;;5033981;28;20189;-81
2024/01/04 07:41:43;;;;;;;19.30;2.33;;;8.80;99.90;;;;;;5033676;28;20174;-80
2024/01/04 07:44:09;;;;;;;24.00;2.33;;;8.80;99.90;;;;;;5033618;28;20159;-80
2024/01/04 07:46:35;;;;;;;18.67;1.85;;;8.80;99.90;;;;;;5015907;28;20563;-80
2024/01/04 07:49:01;;;;;;;24.60;2.20;;;8.80;99.90;;;;;;5033579;28;20173;-80
2024/01/04 07:51:27;;;;;;;19.10;2.20;;;8.80;99.90;;;;;;5034137;28;20805;-80
2024/01/04 07:53:52;;;;;;;20.17;2.03;;;8.80;99.90;;;;;;5033265;28;20478;-80
2024/01/04 07:56:18;;;;;;;20.73;2.83;;;8.80;99.90;;;;;;5033399;28;20488;-80
2024/01/04 07:58:43;;;;;;;21.30;2.53;;;8.80;99.90;;;;;;5035819;28;20189;-80
2024/01/04 08:01:09;;;;;;;20.10;2.20;;;8.90;99.90;;;;;;5037479;28;20169;-80
2024/01/04 08:03:35;;;;;;;18.70;1.90;;;8.90;99.90;;;;;;5037822;28;20189;-80
2024/01/04 08:06:00;;;;;;;19.30;1.83;;;8.90;99.90;;;;;;5037659;28;20659;-80
2024/01/04 08:08:29;;;;;;;20.30;2.87;;;8.90;99.90;;;;;;5037795;28;20550;-81
2024/01/04 08:10:55;;;;;;;18.25;1.70;;;8.90;99.90;;;;;;5037300;28;20195;-81
2024/01/04 08:13:21;;;;;;;19.27;2.07;;;8.90;99.90;;;;;;5037769;28;20170;-81
2024/01/04 08:15:46;;;;;;;18.73;1.90;;;8.90;99.90;;;;;;5037571;28;20190;-83
2024/01/04 08:18:12;;;;;;;19.93;1.60;;;9.00;99.90;;;;;;5037244;28;20194;-80
2024/01/04 08:20:38;;;;;;;21.00;2.40;;;9.00;99.90;;;;;;5019430;28;20170;-80
2024/01/04 08:23:04;;;;;;;19.57;2.30;;;9.00;99.90;;;;;;5037178;28;20193;-82
2024/01/04 08:25:29;;;;;;;20.43;1.70;;;9.00;99.90;;;;;;5019159;28;20174;-80
2024/01/04 08:27:55;;;;;;;18.43;1.83;;;9.00;99.90;;;;;;5037011;28;20170;-80
2024/01/04 08:30:21;;;;;;;20.17;1.97;;;9.00;99.90;;;;;;5036858;28;20241;-80
2024/01/04 08:32:46;;;;;;;19.10;2.00;;;9.10;99.90;;;;;;5020150;28;20253;-80
2024/01/04 08:35:12;;;;;;;17.37;1.33;;;9.10;99.90;;;;;;5037164;28;20652;-80
2024/01/04 08:37:38;;;;;;;19.10;2.07;;;9.10;99.90;;;;;;5036773;28;20190;-80
2024/01/04 08:40:05;;;;;;;19.00;1.90;;;9.10;99.90;;;;;;5036888;28;20543;-80
2024/01/04 08:42:30;;;;;;;19.30;1.55;;;9.10;99.90;;;;;;5018914;28;20444;-80
2024/01/04 08:44:58;;;;;;;18.33;1.23;;;9.10;99.90;;;;;;5036925;28;20153;-80
2024/01/04 08:47:24;;;;;;;18.13;1.45;;;9.10;99.90;;;;;;5019006;28;20424;-79
2024/01/04 08:49:49;;;;;;;21.63;1.87;;;9.10;99.90;;;;;;5019470;28;20172;-80
2024/01/04 08:52:15;;;;;;;19.27;1.70;;;9.10;99.90;;;;;;5036745;28;20193;-81
2024/01/04 08:54:42;;;;;;;19.60;1.60;;;9.10;99.90;;;;;;5036707;28;20162;-79
2024/01/04 08:57:07;;;;;;;19.77;1.83;;;9.20;99.90;;;;;;5018770;28;20798;-79
2024/01/04 08:59:34;;;;;;;21.70;1.50;;;9.20;99.90;;;;;;5036692;28;20169;-79
2024/01/04 09:01:59;;;;;;;17.52;1.40;;;9.20;99.90;;;;;;5037001;28;20201;-80
2024/01/04 09:04:25;;;;;;;23.77;2.00;;;9.20;99.90;;;;;;5036559;28;20182;-80
2024/01/04 09:06:51;;;;;;;17.67;1.83;;;9.20;99.90;;;;;;5019327;28;20186;-80
2024/01/04 09:09:16;;;;;;;18.57;1.17;;;9.20;99.90;;;;;;5019292;28;20166;-81
2024/01/04 09:11:48;;;;;;;18.40;1.30;;;9.30;99.90;;;;;;5019648;28;20196;-80
2024/01/04 09:14:14;;;;;;;18.65;1.40;;;9.30;99.90;;;;;;5019617;28;20192;-82
2024/01/04 09:16:43;;;;;;;25.73;1.63;;;9.40;99.90;;;;;;5037793;28;20257;-81
2024/01/04 09:19:16;;;;;;;19.10;1.88;;;9.40;99.90;;;;;;5038077;28;20264;-81
2024/01/04 09:21:47;;;;;;;21.63;1.98;;;9.40;99.90;;;;;;5037926;28;20221;-81
2024/01/04 09:24:13;;;;;;;19.33;2.13;;;9.50;99.90;;;;;;5037299;28;20166;-82
2024/01/04 09:26:43;;;;;;;18.90;1.80;;;9.50;99.90;;;;;;5019322;28;20221;-81
2024/01/04 09:29:10;;;;;;;17.00;1.40;;;9.60;99.90;;;;;;5036979;28;20181;-80
2024/01/04 09:31:36;;;;;;;19.02;1.67;;;9.60;99.90;;;;;;5037417;28;20162;-81
2024/01/04 09:34:03;;;;;;;17.75;1.60;;;9.70;99.90;;;;;;5037418;28;20211;-80
2024/01/04 09:36:29;;;;;;;18.10;1.70;;;9.70;99.90;;;;;;5037082;28;20719;-81
2024/01/04 09:38:55;;;;;;;18.38;1.67;;;9.70;99.90;;;;;;5019084;28;20170;-82
2024/01/04 09:41:32;;;;;;;19.83;1.33;;;9.80;99.90;;;;;;5037190;28;20162;-81
2024/01/04 09:44:03;;;;;;;17.10;1.40;;;9.90;99.90;;;;;;5036797;28;20157;-81
2024/01/04 09:46:39;;;;;;;16.83;1.75;;;9.90;99.90;;;;;;5037343;28;20181;-81
2024/01/04 09:49:06;;;;;;;17.13;1.35;;;10.00;99.90;;;;;;5036647;28;20173;-79
2024/01/04 09:51:38;;;;;;;18.35;1.90;;;10.00;99.90;;;;;;5036050;28;20162;-82
2024/01/04 09:54:09;;;;;;;18.52;1.80;;;9.90;99.90;;;;;;5036106;28;20162;-80
2024/01/04 09:56:42;;;;;;;17.80;1.80;;;9.90;99.90;;;;;;5035945;28;20221;-80
2024/01/04 09:59:09;;;;;;;17.17;1.70;;;9.80;99.90;;;;;;5036391;28;20211;-81
2024/01/04 10:01:37;;;;;;;17.95;1.85;;;9.70;99.90;;;;;;5036094;28;20185;-79
2024/01/04 10:04:14;;;;;;;18.08;1.75;;;9.70;99.90;;;;;;5035961;28;20177;-82
2024/01/04 10:06:41;;;;;;;17.30;1.52;;;9.70;99.90;;;;;;5036571;28;20193;-81
2024/01/04 10:09:24;;;;;;;19.65;1.98;;;9.70;99.90;;;;;;5036358;28;20170;-81
2024/01/04 10:12:07;;;;;;;17.60;1.75;;;9.70;99.90;;;;;;5037304;28;20182;-80
2024/01/04 10:14:34;;;;;;;20.25;2.03;;;9.80;99.90;;;;;;5018723;28;20161;-79
2024/01/04 10:17:01;;;;;;;17.58;1.75;;;9.80;99.90;;;;;;5018987;28;20581;-80
2024/01/04 10:19:28;;;;;;;17.60;1.40;;;9.90;99.90;;;;;;5036718;28;20244;-82
2024/01/04 10:22:02;;;;;;;17.50;1.50;;;9.90;99.90;;;;;;5035477;28;20185;-81
2024/01/04 10:24:29;;;;;;;16.50;1.42;;;10.10;99.90;;;;;;5036482;28;20150;-80
2024/01/04 10:26:57;;;;;;;17.90;1.42;;;10.10;99.90;;;;;;5036250;28;20181;-80
2024/01/04 10:29:23;;;;;;;17.67;1.45;;;10.10;99.90;;;;;;5035831;28;20161;-82
2024/01/04 10:32:05;;;;;;;17.58;2.03;;;10.00;99.90;;;;;;5018293;28;20170;-80
2024/01/04 10:34:34;;;;;;;16.63;1.40;;;10.00;99.90;;;;;;5036091;28;20638;-81
2024/01/04 10:37:13;;;;;;;17.98;1.73;;;10.10;99.90;;;;;;5035770;28;20197;-81
2024/01/04 10:39:41;;;;;;;22.55;2.22;;;10.10;99.90;;;;;;5036313;28;20212;-81
2024/01/04 10:42:09;;;;;;;16.83;1.38;;;10.20;99.90;;;;;;5035878;28;20182;-81
2024/01/04 10:44:35;;;;;;;16.52;1.60;;;10.20;99.90;;;;;;5018311;28;20174;-80
2024/01/04 10:47:02;;;;;;;17.40;1.20;;;10.10;99.90;;;;;;5035754;28;20196;-83
2024/01/04 10:49:28;;;;;;;17.30;1.60;;;10.10;99.90;;;;;;5035430;28;20628;-80
2024/01/04 10:51:57;;;;;;;18.52;1.55;;;10.10;99.90;;;;;;5035198;28;20170;-81
2024/01/04 10:54:31;;;;;;;18.33;1.58;;;10.10;99.90;;;;;;5035804;28;20583;-80
2024/01/04 10:57:01;;;;;;;17.05;1.20;;;10.20;99.90;;;;;;5035036;28;20185;-81
2024/01/04 10:59:29;;;;;;;16.63;1.30;;;10.20;99.90;;;;;;5017889;28;20575;-81
2024/01/04 11:01:59;;;;;;;16.05;1.33;;;10.30;99.90;;;;;;5034959;28;20276;-80
2024/01/04 11:04:29;;;;;;;20.50;2.13;;;10.30;99.90;;;;;;5035447;28;20609;-82
2024/01/04 11:06:56;;;;;;;17.05;1.75;;;10.20;99.90;;;;;;5035222;28;20182;-80
2024/01/04 11:09:25;;;;;;;17.65;1.80;;;10.20;99.90;;;;;;5035124;28;20166;-82
2024/01/04 11:11:52;;;;;;;18.73;1.85;;;10.20;99.90;;;;;;5035103;28;20195;-80
2024/01/04 11:14:22;;;;;;;18.65;1.50;;;10.20;99.90;;;;;;5035548;28;20252;-81
2024/01/04 11:17:06;;;;;;;18.75;1.92;;;10.10;99.90;;;;;;5034815;28;20192;-80
2024/01/04 11:20:09;;;;;;;21.63;2.35;;;10.10;99.90;;;;;;5035516;28;20166;-82
2024/01/04 11:23:24;;;;;;;19.10;2.08;;;10.10;99.90;;;;;;5036095;28;20205;-80
2024/01/04 11:26:17;;;;;;;23.27;2.15;;;10.10;99.90;;;;;;4980779;28;20194;-81
2024/01/04 11:28:44;;;;;;;20.48;2.15;;;10.00;99.90;;;;;;5035467;28;20260;-80
2024/01/04 11:31:11;;;;;;;27.42;1.95;;;10.00;99.90;;;;;;5035076;28;20381;-81
2024/01/04 11:33:40;;;;;;;26.80;2.75;;;10.10;99.90;;;;;;5034433;28;20173;-80
2024/01/04 11:36:08;;;;;;;24.45;2.60;;;10.10;99.90;;;;;;5017779;28;20209;-81
2024/01/04 11:38:34;;;;;;;32.53;2.28;;;10.10;99.90;;;;;;5035128;28;20166;-81
2024/01/04 11:41:03;;;;;;;28.95;3.33;;;10.10;99.90;;;;;;5034943;28;20219;-80
2024/01/04 11:43:38;;;;;;;23.27;2.15;;;10.10;99.90;;;;;;5035187;28;20232;-81
2024/01/04 11:46:26;;;;;;;24.20;3.05;;;10.10;99.90;;;;;;5034857;28;20185;-81
2024/01/04 11:48:58;;;;;;;21.30;2.10;;;10.00;99.90;;;;;;5034989;28;20150;-81
2024/01/04 11:51:39;;;;;;;19.80;2.40;;;10.00;99.90;;;;;;5034604;28;20197;-81
2024/01/04 11:54:05;;;;;;;23.98;2.28;;;10.00;99.90;;;;;;5034940;28;20157;-81
2024/01/04 11:56:31;;;;;;;22.02;2.40;;;10.10;99.90;;;;;;5034405;28;20204;-81
2024/01/04 11:59:11;;;;;;;19.30;2.20;;;10.20;99.90;;;;;;5017342;28;20174;-82
2024/01/04 12:01:43;;;;;;;21.33;2.15;;;10.20;99.90;;;;;;5035325;28;20173;-80
2024/01/04 12:04:09;;;;;;;20.17;2.20;;;10.20;99.90;;;;;;5034917;28;20706;-82
2024/01/04 12:06:39;;;;;;;23.55;2.20;;;10.10;99.90;;;;;;5035044;28;20663;-81
2024/01/04 12:09:06;;;;;;;20.90;2.28;;;10.00;99.90;;;;;;5034764;28;20158;-80
2024/01/04 12:11:33;;;;;;;26.02;2.72;;;10.00;99.90;;;;;;5034257;28;20241;-82
2024/01/04 12:14:02;;;;;;;19.80;2.00;;;10.00;99.90;;;;;;5035113;28;20276;-82
2024/01/04 12:16:29;;;;;;;18.80;1.85;;;10.00;99.90;;;;;;5034330;28;20186;-81
2024/01/04 12:18:56;;;;;;;23.83;2.40;;;10.00;99.90;;;;;;5016548;28;20166;-81
2024/01/04 12:21:21;;;;;;;24.45;2.75;;;9.90;99.90;;;;;;5034637;28;20169;-80
2024/01/04 12:23:48;;;;;;;21.00;2.20;;;10.00;99.90;;;;;;5034148;28;20194;-83
2024/01/04 12:26:14;;;;;;;21.58;2.30;;;10.20;99.90;;;;;;5016528;28;20694;-82
2024/01/04 12:28:41;;;;;;;31.15;2.13;;;10.30;99.90;;;;;;5034385;28;20193;-80
2024/01/04 12:31:08;;;;;;;21.40;2.20;;;10.40;99.90;;;;;;5034221;28;20162;-81
2024/01/04 12:33:34;;;;;;;22.92;2.15;;;10.50;99.90;;;;;;5034055;28;20220;-81
2024/01/04 12:36:00;;;;;;;19.10;2.17;;;10.50;99.90;;;;;;5034665;28;20186;-82
2024/01/04 12:38:26;;;;;;;25.08;1.95;;;10.50;99.90;;;;;;5016965;28;20261;-80
2024/01/04 12:40:52;;;;;;;17.93;1.87;;;10.50;99.90;;;;;;5034488;28;20205;-80
2024/01/04 12:43:21;;;;;;;24.50;1.77;;;10.40;99.90;;;;;;5016768;28;20445;-81
2024/01/04 12:45:47;;;;;;;26.10;2.33;;;10.30;99.90;;;;;;5038204;28;20623;-81